sensor_id;sensor_type;location;lat;lon;timestamp;P1;durP1;ratioP1;P2;durP2;ratioP2
64029;SDS011;50277;52.064;4.492;2022-11-09T00:01:35;11.93;;;2.30;;
64029;SDS011;50277;52.064;4.492;2022-11-09T00:04:01;12.18;;;2.83;;
64029;SDS011;50277;52.064;4.492;2022-11-09T00:06:27;9.90;;;2.83;;
64029;SDS011;50277;52.064;4.492;2022-11-09T00:08:53;12.15;;;2.72;;
64029;SDS011;50277;52.064;4.492;2022-11-09T00:11:19;7.03;;;2.78;;
64029;SDS011;50277;52.064;4.492;2022-11-09T00:13:44;14.23;;;2.67;;
64029;SDS011;50277;52.064;4.492;2022-11-09T00:16:11;10.35;;;2.17;;
64029;SDS011;50277;52.064;4.492;2022-11-09T00:18:38;11.40;;;2.15;;
64029;SDS011;50277;52.064;4.492;2022-11-09T00:21:08;10.73;;;2.92;;
64029;SDS011;50277;52.064;4.492;2022-11-09T00:23:35;11.05;;;2.40;;
64029;SDS011;50277;52.064;4.492;2022-11-09T00:26:01;10.40;;;2.45;;
64029;SDS011;50277;52.064;4.492;2022-11-09T00:28:30;16.63;;;2.47;;
64029;SDS011;50277;52.064;4.492;2022-11-09T00:31:03;9.00;;;2.60;;
64029;SDS011;50277;52.064;4.492;2022-11-09T00:33:30;8.40;;;2.28;;
64029;SDS011;50277;52.064;4.492;2022-11-09T00:35:56;7.25;;;2.35;;
64029;SDS011;50277;52.064;4.492;2022-11-09T00:38:21;10.00;;;2.78;;
64029;SDS011;50277;52.064;4.492;2022-11-09T00:40:47;11.15;;;2.70;;
64029;SDS011;50277;52.064;4.492;2022-11-09T00:43:12;8.60;;;2.13;;
64029;SDS011;50277;52.064;4.492;2022-11-09T00:45:38;11.30;;;2.85;;
64029;SDS011;50277;52.064;4.492;2022-11-09T00:48:04;14.07;;;2.60;;
64029;SDS011;50277;52.064;4.492;2022-11-09T00:50:30;10.40;;;2.33;;
64029;SDS011;50277;52.064;4.492;2022-11-09T00:52:55;9.93;;;1.85;;
64029;SDS011;50277;52.064;4.492;2022-11-09T00:55:21;9.77;;;2.58;;
64029;SDS011;50277;52.064;4.492;2022-11-09T00:57:48;12.18;;;2.33;;
64029;SDS011;50277;52.064;4.492;2022-11-09T01:00:20;8.90;;;2.10;;
64029;SDS011;50277;52.064;4.492;2022-11-09T01:02:50;9.50;;;2.78;;
64029;SDS011;50277;52.064;4.492;2022-11-09T01:05:15;10.32;;;2.50;;
64029;SDS011;50277;52.064;4.492;2022-11-09T01:07:41;14.18;;;2.78;;
64029;SDS011;50277;52.064;4.492;2022-11-09T01:10:07;10.27;;;2.45;;
64029;SDS011;50277;52.064;4.492;2022-11-09T01:12:32;9.20;;;2.58;;
64029;SDS011;50277;52.064;4.492;2022-11-09T01:14:58;7.90;;;2.33;;
64029;SDS011;50277;52.064;4.492;2022-11-09T01:17:23;11.00;;;2.55;;
64029;SDS011;50277;52.064;4.492;2022-11-09T01:19:49;8.73;;;2.17;;
64029;SDS011;50277;52.064;4.492;2022-11-09T01:22:14;12.30;;;2.92;;
64029;SDS011;50277;52.064;4.492;2022-11-09T01:24:40;16.88;;;2.78;;
64029;SDS011;50277;52.064;4.492;2022-11-09T01:27:07;10.95;;;2.90;;
64029;SDS011;50277;52.064;4.492;2022-11-09T01:29:32;11.05;;;2.78;;
64029;SDS011;50277;52.064;4.492;2022-11-09T01:31:57;16.45;;;2.60;;
64029;SDS011;50277;52.064;4.492;2022-11-09T01:34:23;13.75;;;2.95;;
64029;SDS011;50277;52.064;4.492;2022-11-09T01:36:51;15.63;;;3.03;;
64029;SDS011;50277;52.064;4.492;2022-11-09T01:39:16;20.70;;;2.70;;
64029;SDS011;50277;52.064;4.492;2022-11-09T01:41:43;11.73;;;3.10;;
64029;SDS011;50277;52.064;4.492;2022-11-09T01:44:13;10.23;;;2.42;;
64029;SDS011;50277;52.064;4.492;2022-11-09T01:46:59;11.70;;;2.33;;
64029;SDS011;50277;52.064;4.492;2022-11-09T01:52:21;11.10;;;2.22;;
64029;SDS011;50277;52.064;4.492;2022-11-09T01:55:02;8.43;;;2.15;;
64029;SDS011;50277;52.064;4.492;2022-11-09T02:00:20;8.38;;;2.28;;
64029;SDS011;50277;52.064;4.492;2022-11-09T02:02:50;8.48;;;2.60;;
64029;SDS011;50277;52.064;4.492;2022-11-09T02:05:20;7.13;;;2.17;;
64029;SDS011;50277;52.064;4.492;2022-11-09T02:07:46;14.02;;;2.90;;
64029;SDS011;50277;52.064;4.492;2022-11-09T02:10:13;12.48;;;2.17;;
64029;SDS011;50277;52.064;4.492;2022-11-09T02:13:02;12.73;;;2.33;;
64029;SDS011;50277;52.064;4.492;2022-11-09T02:15:27;13.20;;;3.25;;
64029;SDS011;50277;52.064;4.492;2022-11-09T02:17:53;9.65;;;2.65;;
64029;SDS011;50277;52.064;4.492;2022-11-09T02:20:21;10.57;;;2.67;;
64029;SDS011;50277;52.064;4.492;2022-11-09T02:22:47;16.20;;;3.28;;
64029;SDS011;50277;52.064;4.492;2022-11-09T02:25:13;9.32;;;2.20;;
64029;SDS011;50277;52.064;4.492;2022-11-09T02:27:39;12.85;;;2.63;;
64029;SDS011;50277;52.064;4.492;2022-11-09T02:30:07;13.55;;;2.60;;
64029;SDS011;50277;52.064;4.492;2022-11-09T02:32:32;10.40;;;2.95;;
64029;SDS011;50277;52.064;4.492;2022-11-09T02:34:58;13.63;;;2.78;;
64029;SDS011;50277;52.064;4.492;2022-11-09T02:37:31;9.88;;;2.72;;
64029;SDS011;50277;52.064;4.492;2022-11-09T02:40:00;16.50;;;2.80;;
64029;SDS011;50277;52.064;4.492;2022-11-09T02:42:27;12.75;;;2.67;;
64029;SDS011;50277;52.064;4.492;2022-11-09T02:44:56;14.45;;;3.20;;
64029;SDS011;50277;52.064;4.492;2022-11-09T02:47:23;15.77;;;2.67;;
64029;SDS011;50277;52.064;4.492;2022-11-09T02:49:48;17.35;;;2.80;;
64029;SDS011;50277;52.064;4.492;2022-11-09T02:52:14;8.35;;;2.50;;
64029;SDS011;50277;52.064;4.492;2022-11-09T02:54:39;10.75;;;3.28;;
64029;SDS011;50277;52.064;4.492;2022-11-09T02:57:04;11.50;;;2.80;;
64029;SDS011;50277;52.064;4.492;2022-11-09T02:59:30;13.43;;;2.83;;
64029;SDS011;50277;52.064;4.492;2022-11-09T03:01:55;11.13;;;1.90;;
64029;SDS011;50277;52.064;4.492;2022-11-09T03:04:20;12.32;;;2.50;;
64029;SDS011;50277;52.064;4.492;2022-11-09T03:06:46;9.38;;;2.55;;
64029;SDS011;50277;52.064;4.492;2022-11-09T03:09:11;12.65;;;2.70;;
64029;SDS011;50277;52.064;4.492;2022-11-09T03:11:38;11.07;;;2.05;;
64029;SDS011;50277;52.064;4.492;2022-11-09T03:14:04;11.73;;;2.60;;
64029;SDS011;50277;52.064;4.492;2022-11-09T03:16:29;13.35;;;2.67;;
64029;SDS011;50277;52.064;4.492;2022-11-09T03:18:55;12.15;;;2.58;;
64029;SDS011;50277;52.064;4.492;2022-11-09T03:21:22;9.00;;;2.50;;
64029;SDS011;50277;52.064;4.492;2022-11-09T03:23:48;11.30;;;2.58;;
64029;SDS011;50277;52.064;4.492;2022-11-09T03:26:14;12.25;;;2.67;;
64029;SDS011;50277;52.064;4.492;2022-11-09T03:28:39;12.10;;;2.25;;
64029;SDS011;50277;52.064;4.492;2022-11-09T03:31:05;14.27;;;2.88;;
64029;SDS011;50277;52.064;4.492;2022-11-09T03:33:31;11.68;;;2.38;;
64029;SDS011;50277;52.064;4.492;2022-11-09T03:35:56;6.97;;;2.10;;
64029;SDS011;50277;52.064;4.492;2022-11-09T03:38:22;12.20;;;2.33;;
64029;SDS011;50277;52.064;4.492;2022-11-09T03:40:47;8.68;;;2.85;;
64029;SDS011;50277;52.064;4.492;2022-11-09T03:43:12;9.95;;;2.97;;
64029;SDS011;50277;52.064;4.492;2022-11-09T03:45:38;9.95;;;2.53;;
64029;SDS011;50277;52.064;4.492;2022-11-09T03:48:03;9.02;;;3.03;;
64029;SDS011;50277;52.064;4.492;2022-11-09T03:50:30;8.57;;;2.53;;
64029;SDS011;50277;52.064;4.492;2022-11-09T03:52:58;9.07;;;2.10;;
64029;SDS011;50277;52.064;4.492;2022-11-09T03:55:24;11.70;;;2.55;;
64029;SDS011;50277;52.064;4.492;2022-11-09T03:57:49;12.95;;;2.47;;
64029;SDS011;50277;52.064;4.492;2022-11-09T04:00:16;9.38;;;2.72;;
64029;SDS011;50277;52.064;4.492;2022-11-09T04:02:43;10.68;;;2.55;;
64029;SDS011;50277;52.064;4.492;2022-11-09T04:05:08;10.15;;;2.50;;
64029;SDS011;50277;52.064;4.492;2022-11-09T04:07:34;7.07;;;1.95;;
64029;SDS011;50277;52.064;4.492;2022-11-09T04:10:00;11.10;;;2.08;;
64029;SDS011;50277;52.064;4.492;2022-11-09T04:12:25;9.80;;;2.50;;
64029;SDS011;50277;52.064;4.492;2022-11-09T04:14:50;7.63;;;2.00;;
64029;SDS011;50277;52.064;4.492;2022-11-09T04:17:16;9.85;;;2.72;;
64029;SDS011;50277;52.064;4.492;2022-11-09T04:19:41;5.60;;;1.90;;
64029;SDS011;50277;52.064;4.492;2022-11-09T04:22:06;5.78;;;1.67;;
64029;SDS011;50277;52.064;4.492;2022-11-09T04:24:32;6.63;;;2.22;;
64029;SDS011;50277;52.064;4.492;2022-11-09T04:26:57;12.70;;;2.80;;
64029;SDS011;50277;52.064;4.492;2022-11-09T04:29:23;10.55;;;2.42;;
64029;SDS011;50277;52.064;4.492;2022-11-09T04:31:48;13.02;;;2.40;;
64029;SDS011;50277;52.064;4.492;2022-11-09T04:34:14;6.45;;;1.88;;
64029;SDS011;50277;52.064;4.492;2022-11-09T04:36:40;12.15;;;3.10;;
64029;SDS011;50277;52.064;4.492;2022-11-09T04:39:05;8.13;;;2.17;;
64029;SDS011;50277;52.064;4.492;2022-11-09T04:41:30;7.82;;;1.70;;
64029;SDS011;50277;52.064;4.492;2022-11-09T04:43:56;8.65;;;2.15;;
64029;SDS011;50277;52.064;4.492;2022-11-09T04:46:21;13.43;;;2.42;;
64029;SDS011;50277;52.064;4.492;2022-11-09T04:48:46;11.93;;;2.47;;
64029;SDS011;50277;52.064;4.492;2022-11-09T04:51:12;12.73;;;1.92;;
64029;SDS011;50277;52.064;4.492;2022-11-09T04:53:37;8.18;;;1.90;;
64029;SDS011;50277;52.064;4.492;2022-11-09T04:56:03;6.28;;;2.15;;
64029;SDS011;50277;52.064;4.492;2022-11-09T04:58:29;12.52;;;2.15;;
64029;SDS011;50277;52.064;4.492;2022-11-09T05:01:00;7.20;;;2.05;;
64029;SDS011;50277;52.064;4.492;2022-11-09T05:03:29;11.35;;;2.83;;
64029;SDS011;50277;52.064;4.492;2022-11-09T05:05:54;6.13;;;2.03;;
64029;SDS011;50277;52.064;4.492;2022-11-09T05:08:20;9.48;;;2.10;;
64029;SDS011;50277;52.064;4.492;2022-11-09T05:10:45;10.70;;;2.55;;
64029;SDS011;50277;52.064;4.492;2022-11-09T05:13:11;8.43;;;2.25;;
64029;SDS011;50277;52.064;4.492;2022-11-09T05:15:36;13.02;;;2.92;;
64029;SDS011;50277;52.064;4.492;2022-11-09T05:18:02;12.38;;;3.13;;
64029;SDS011;50277;52.064;4.492;2022-11-09T05:20:28;8.93;;;3.33;;
64029;SDS011;50277;52.064;4.492;2022-11-09T05:22:53;10.52;;;3.80;;
64029;SDS011;50277;52.064;4.492;2022-11-09T05:25:38;8.38;;;3.63;;
64029;SDS011;50277;52.064;4.492;2022-11-09T05:28:03;10.82;;;3.78;;
64029;SDS011;50277;52.064;4.492;2022-11-09T05:30:29;11.23;;;4.63;;
64029;SDS011;50277;52.064;4.492;2022-11-09T05:32:54;15.38;;;4.10;;
64029;SDS011;50277;52.064;4.492;2022-11-09T05:35:20;13.02;;;3.97;;
64029;SDS011;50277;52.064;4.492;2022-11-09T05:37:46;12.60;;;3.30;;
64029;SDS011;50277;52.064;4.492;2022-11-09T05:40:12;9.15;;;2.80;;
64029;SDS011;50277;52.064;4.492;2022-11-09T05:42:38;13.82;;;3.05;;
64029;SDS011;50277;52.064;4.492;2022-11-09T05:45:05;12.82;;;3.33;;
64029;SDS011;50277;52.064;4.492;2022-11-09T05:47:35;12.38;;;3.28;;
64029;SDS011;50277;52.064;4.492;2022-11-09T05:50:05;11.27;;;3.30;;
64029;SDS011;50277;52.064;4.492;2022-11-09T05:52:31;14.43;;;3.70;;
64029;SDS011;50277;52.064;4.492;2022-11-09T05:54:57;11.32;;;3.25;;
64029;SDS011;50277;52.064;4.492;2022-11-09T05:57:22;15.07;;;3.00;;
64029;SDS011;50277;52.064;4.492;2022-11-09T05:59:47;11.38;;;2.95;;
64029;SDS011;50277;52.064;4.492;2022-11-09T06:02:13;12.77;;;2.92;;
64029;SDS011;50277;52.064;4.492;2022-11-09T06:04:38;10.13;;;2.80;;
64029;SDS011;50277;52.064;4.492;2022-11-09T06:07:03;9.07;;;2.15;;
64029;SDS011;50277;52.064;4.492;2022-11-09T06:09:29;13.63;;;2.58;;
64029;SDS011;50277;52.064;4.492;2022-11-09T06:11:54;10.98;;;2.45;;
64029;SDS011;50277;52.064;4.492;2022-11-09T06:14:19;11.00;;;2.22;;
64029;SDS011;50277;52.064;4.492;2022-11-09T06:16:44;14.02;;;3.15;;
64029;SDS011;50277;52.064;4.492;2022-11-09T06:19:10;16.92;;;3.33;;
64029;SDS011;50277;52.064;4.492;2022-11-09T06:21:35;11.15;;;3.00;;
64029;SDS011;50277;52.064;4.492;2022-11-09T06:24:00;10.93;;;2.17;;
64029;SDS011;50277;52.064;4.492;2022-11-09T06:26:26;9.20;;;2.17;;
64029;SDS011;50277;52.064;4.492;2022-11-09T06:28:51;10.00;;;2.42;;
64029;SDS011;50277;52.064;4.492;2022-11-09T06:31:16;15.13;;;3.58;;
64029;SDS011;50277;52.064;4.492;2022-11-09T06:33:42;18.17;;;2.75;;
64029;SDS011;50277;52.064;4.492;2022-11-09T06:36:08;13.23;;;2.90;;
64029;SDS011;50277;52.064;4.492;2022-11-09T06:38:34;13.30;;;2.60;;
64029;SDS011;50277;52.064;4.492;2022-11-09T06:40:59;11.95;;;2.70;;
64029;SDS011;50277;52.064;4.492;2022-11-09T06:43:25;10.10;;;2.30;;
64029;SDS011;50277;52.064;4.492;2022-11-09T06:45:50;12.60;;;2.90;;
64029;SDS011;50277;52.064;4.492;2022-11-09T06:48:16;11.57;;;2.40;;
64029;SDS011;50277;52.064;4.492;2022-11-09T06:50:42;13.63;;;2.80;;
64029;SDS011;50277;52.064;4.492;2022-11-09T06:53:08;15.88;;;2.50;;
64029;SDS011;50277;52.064;4.492;2022-11-09T06:55:35;9.15;;;2.28;;
64029;SDS011;50277;52.064;4.492;2022-11-09T06:58:09;11.55;;;3.22;;
64029;SDS011;50277;52.064;4.492;2022-11-09T07:00:36;11.93;;;2.53;;
64029;SDS011;50277;52.064;4.492;2022-11-09T07:03:01;10.23;;;2.65;;
64029;SDS011;50277;52.064;4.492;2022-11-09T07:05:26;10.25;;;2.55;;
64029;SDS011;50277;52.064;4.492;2022-11-09T07:07:52;14.45;;;3.03;;
64029;SDS011;50277;52.064;4.492;2022-11-09T07:10:17;12.07;;;2.63;;
64029;SDS011;50277;52.064;4.492;2022-11-09T07:12:43;11.65;;;2.40;;
64029;SDS011;50277;52.064;4.492;2022-11-09T07:15:08;10.73;;;2.55;;
64029;SDS011;50277;52.064;4.492;2022-11-09T07:17:35;10.32;;;2.70;;
64029;SDS011;50277;52.064;4.492;2022-11-09T07:20:03;13.10;;;2.33;;
64029;SDS011;50277;52.064;4.492;2022-11-09T07:22:29;16.83;;;3.10;;
64029;SDS011;50277;52.064;4.492;2022-11-09T07:24:54;15.40;;;2.45;;
64029;SDS011;50277;52.064;4.492;2022-11-09T07:27:20;12.60;;;2.67;;
64029;SDS011;50277;52.064;4.492;2022-11-09T07:29:45;15.60;;;3.08;;
64029;SDS011;50277;52.064;4.492;2022-11-09T07:32:11;10.95;;;3.10;;
64029;SDS011;50277;52.064;4.492;2022-11-09T07:34:36;9.68;;;2.75;;
64029;SDS011;50277;52.064;4.492;2022-11-09T07:37:01;16.38;;;2.72;;
64029;SDS011;50277;52.064;4.492;2022-11-09T07:39:27;11.82;;;2.63;;
64029;SDS011;50277;52.064;4.492;2022-11-09T07:41:52;15.88;;;2.65;;
64029;SDS011;50277;52.064;4.492;2022-11-09T07:44:19;11.90;;;2.70;;
64029;SDS011;50277;52.064;4.492;2022-11-09T07:46:47;12.73;;;2.83;;
64029;SDS011;50277;52.064;4.492;2022-11-09T07:49:13;14.93;;;3.13;;
64029;SDS011;50277;52.064;4.492;2022-11-09T07:51:40;12.27;;;2.55;;
64029;SDS011;50277;52.064;4.492;2022-11-09T07:54:06;25.02;;;3.42;;
64029;SDS011;50277;52.064;4.492;2022-11-09T07:56:31;9.77;;;2.30;;
64029;SDS011;50277;52.064;4.492;2022-11-09T07:58:57;14.75;;;3.10;;
64029;SDS011;50277;52.064;4.492;2022-11-09T08:01:22;12.27;;;2.85;;
64029;SDS011;50277;52.064;4.492;2022-11-09T08:03:48;12.43;;;2.58;;
64029;SDS011;50277;52.064;4.492;2022-11-09T08:06:13;16.88;;;2.72;;
64029;SDS011;50277;52.064;4.492;2022-11-09T08:08:38;11.07;;;2.38;;
64029;SDS011;50277;52.064;4.492;2022-11-09T08:11:03;12.10;;;3.03;;
64029;SDS011;50277;52.064;4.492;2022-11-09T08:13:29;8.77;;;2.40;;
64029;SDS011;50277;52.064;4.492;2022-11-09T08:15:54;16.92;;;3.72;;
64029;SDS011;50277;52.064;4.492;2022-11-09T08:18:20;11.70;;;2.25;;
64029;SDS011;50277;52.064;4.492;2022-11-09T08:20:46;12.88;;;2.63;;
64029;SDS011;50277;52.064;4.492;2022-11-09T08:23:12;12.02;;;3.25;;
64029;SDS011;50277;52.064;4.492;2022-11-09T08:25:39;12.68;;;2.50;;
64029;SDS011;50277;52.064;4.492;2022-11-09T08:28:04;22.02;;;3.55;;
64029;SDS011;50277;52.064;4.492;2022-11-09T08:30:30;14.27;;;2.75;;
64029;SDS011;50277;52.064;4.492;2022-11-09T08:32:56;10.60;;;2.97;;
64029;SDS011;50277;52.064;4.492;2022-11-09T08:35:22;11.30;;;2.65;;
64029;SDS011;50277;52.064;4.492;2022-11-09T08:37:49;14.68;;;3.20;;
64029;SDS011;50277;52.064;4.492;2022-11-09T08:40:17;12.00;;;2.60;;
64029;SDS011;50277;52.064;4.492;2022-11-09T08:42:44;10.43;;;2.40;;
64029;SDS011;50277;52.064;4.492;2022-11-09T08:45:10;12.52;;;3.15;;
64029;SDS011;50277;52.064;4.492;2022-11-09T08:47:36;16.23;;;3.90;;
64029;SDS011;50277;52.064;4.492;2022-11-09T08:50:02;11.98;;;3.17;;
64029;SDS011;50277;52.064;4.492;2022-11-09T08:52:28;19.58;;;3.13;;
64029;SDS011;50277;52.064;4.492;2022-11-09T08:54:54;15.07;;;2.83;;
64029;SDS011;50277;52.064;4.492;2022-11-09T08:57:22;10.95;;;2.92;;
64029;SDS011;50277;52.064;4.492;2022-11-09T08:59:48;15.90;;;3.13;;
64029;SDS011;50277;52.064;4.492;2022-11-09T09:02:13;9.13;;;3.08;;
64029;SDS011;50277;52.064;4.492;2022-11-09T09:04:39;14.73;;;2.92;;
64029;SDS011;50277;52.064;4.492;2022-11-09T09:07:04;11.52;;;2.85;;
64029;SDS011;50277;52.064;4.492;2022-11-09T09:09:29;13.15;;;2.95;;
64029;SDS011;50277;52.064;4.492;2022-11-09T09:11:56;11.27;;;2.83;;
64029;SDS011;50277;52.064;4.492;2022-11-09T09:14:21;13.32;;;3.08;;
64029;SDS011;50277;52.064;4.492;2022-11-09T09:16:46;15.73;;;3.08;;
64029;SDS011;50277;52.064;4.492;2022-11-09T09:19:12;17.98;;;3.22;;
64029;SDS011;50277;52.064;4.492;2022-11-09T09:21:37;11.48;;;2.92;;
64029;SDS011;50277;52.064;4.492;2022-11-09T09:24:03;12.55;;;2.42;;
64029;SDS011;50277;52.064;4.492;2022-11-09T09:26:28;16.63;;;3.75;;
64029;SDS011;50277;52.064;4.492;2022-11-09T09:28:53;16.98;;;3.60;;
64029;SDS011;50277;52.064;4.492;2022-11-09T09:31:19;10.27;;;2.92;;
64029;SDS011;50277;52.064;4.492;2022-11-09T09:33:44;11.73;;;2.70;;
64029;SDS011;50277;52.064;4.492;2022-11-09T09:36:21;12.25;;;3.38;;
64029;SDS011;50277;52.064;4.492;2022-11-09T09:38:51;11.32;;;2.70;;
64029;SDS011;50277;52.064;4.492;2022-11-09T09:41:26;14.35;;;2.75;;
64029;SDS011;50277;52.064;4.492;2022-11-09T09:43:56;14.90;;;2.97;;
64029;SDS011;50277;52.064;4.492;2022-11-09T09:46:31;11.57;;;2.93;;
64029;SDS011;50277;52.064;4.492;2022-11-09T09:51:39;11.10;;;2.60;;
64029;SDS011;50277;52.064;4.492;2022-11-09T09:54:10;18.95;;;2.95;;
64029;SDS011;50277;52.064;4.492;2022-11-09T09:56:48;18.00;;;3.28;;
64029;SDS011;50277;52.064;4.492;2022-11-09T10:01:50;16.58;;;3.10;;
64029;SDS011;50277;52.064;4.492;2022-11-09T10:04:22;11.55;;;2.35;;
64029;SDS011;50277;52.064;4.492;2022-11-09T10:28:55;13.63;;;2.43;;
64029;SDS011;50277;52.064;4.492;2022-11-09T10:31:22;9.55;;;2.50;;
64029;SDS011;50277;52.064;4.492;2022-11-09T10:33:50;10.90;;;2.40;;
64029;SDS011;50277;52.064;4.492;2022-11-09T10:39:06;11.90;;;3.58;;
64029;SDS011;50277;52.064;4.492;2022-11-09T10:41:38;14.85;;;2.50;;
64029;SDS011;50277;52.064;4.492;2022-11-09T10:44:07;14.88;;;2.92;;
64029;SDS011;50277;52.064;4.492;2022-11-09T10:47:23;9.00;;;2.20;;
64029;SDS011;50277;52.064;4.492;2022-11-09T10:49:31;12.73;;;2.65;;
64029;SDS011;50277;52.064;4.492;2022-11-09T10:51:57;13.30;;;2.72;;
64029;SDS011;50277;52.064;4.492;2022-11-09T10:54:24;12.40;;;2.67;;
64029;SDS011;50277;52.064;4.492;2022-11-09T10:59:51;7.68;;;2.03;;
64029;SDS011;50277;52.064;4.492;2022-11-09T11:04:49;9.02;;;2.10;;
64029;SDS011;50277;52.064;4.492;2022-11-09T11:07:20;7.70;;;2.30;;
64029;SDS011;50277;52.064;4.492;2022-11-09T11:09:45;5.53;;;1.85;;
64029;SDS011;50277;52.064;4.492;2022-11-09T11:12:15;9.95;;;2.42;;
64029;SDS011;50277;52.064;4.492;2022-11-09T11:14:44;5.68;;;1.88;;
64029;SDS011;50277;52.064;4.492;2022-11-09T11:17:22;8.65;;;1.85;;
64029;SDS011;50277;52.064;4.492;2022-11-09T11:19:49;5.97;;;1.75;;
64029;SDS011;50277;52.064;4.492;2022-11-09T11:22:19;4.00;;;1.85;;
64029;SDS011;50277;52.064;4.492;2022-11-09T11:24:54;8.75;;;2.08;;
64029;SDS011;50277;52.064;4.492;2022-11-09T11:27:43;4.97;;;1.42;;
64029;SDS011;50277;52.064;4.492;2022-11-09T11:32:42;6.65;;;1.85;;
64029;SDS011;50277;52.064;4.492;2022-11-09T11:35:12;7.63;;;2.15;;
64029;SDS011;50277;52.064;4.492;2022-11-09T11:40:36;3.85;;;1.70;;
64029;SDS011;50277;52.064;4.492;2022-11-09T11:45:41;4.38;;;1.40;;
64029;SDS011;50277;52.064;4.492;2022-11-09T11:51:43;3.05;;;1.20;;
64029;SDS011;50277;52.064;4.492;2022-11-09T11:54:12;7.53;;;1.75;;
64029;SDS011;50277;52.064;4.492;2022-11-09T11:56:41;5.93;;;1.77;;
64029;SDS011;50277;52.064;4.492;2022-11-09T12:07:42;5.93;;;1.85;;
64029;SDS011;50277;52.064;4.492;2022-11-09T12:10:13;8.15;;;2.10;;
64029;SDS011;50277;52.064;4.492;2022-11-09T12:20:56;9.13;;;2.30;;
64029;SDS011;50277;52.064;4.492;2022-11-09T12:23:31;10.23;;;3.33;;
64029;SDS011;50277;52.064;4.492;2022-11-09T12:26:11;11.55;;;2.15;;
64029;SDS011;50277;52.064;4.492;2022-11-09T12:31:59;12.00;;;1.95;;
64029;SDS011;50277;52.064;4.492;2022-11-09T12:34:43;8.55;;;1.88;;
64029;SDS011;50277;52.064;4.492;2022-11-09T12:37:38;6.65;;;2.28;;
64029;SDS011;50277;52.064;4.492;2022-11-09T12:40:12;9.00;;;1.77;;
64029;SDS011;50277;52.064;4.492;2022-11-09T12:45:50;7.88;;;1.50;;
64029;SDS011;50277;52.064;4.492;2022-11-09T12:50:55;9.85;;;1.83;;
64029;SDS011;50277;52.064;4.492;2022-11-09T12:53:21;8.55;;;2.50;;
64029;SDS011;50277;52.064;4.492;2022-11-09T12:58:23;8.37;;;2.30;;
64029;SDS011;50277;52.064;4.492;2022-11-09T13:00:57;10.43;;;1.90;;
64029;SDS011;50277;52.064;4.492;2022-11-09T13:03:27;4.32;;;1.85;;
64029;SDS011;50277;52.064;4.492;2022-11-09T13:06:16;7.95;;;1.45;;
64029;SDS011;50277;52.064;4.492;2022-11-09T13:08:43;8.93;;;1.98;;
64029;SDS011;50277;52.064;4.492;2022-11-09T13:11:20;7.10;;;1.80;;
64029;SDS011;50277;52.064;4.492;2022-11-09T13:13:50;6.10;;;1.60;;
64029;SDS011;50277;52.064;4.492;2022-11-09T13:23:47;9.60;;;2.13;;
64029;SDS011;50277;52.064;4.492;2022-11-09T13:47:51;5.68;;;1.90;;
64029;SDS011;50277;52.064;4.492;2022-11-09T13:50:23;10.63;;;2.28;;
64029;SDS011;50277;52.064;4.492;2022-11-09T13:52:53;6.85;;;1.48;;
64029;SDS011;50277;52.064;4.492;2022-11-09T13:55:24;10.27;;;2.00;;
64029;SDS011;50277;52.064;4.492;2022-11-09T13:57:50;6.07;;;1.58;;
64029;SDS011;50277;52.064;4.492;2022-11-09T14:00:21;11.35;;;1.90;;
64029;SDS011;50277;52.064;4.492;2022-11-09T14:07:54;7.38;;;2.75;;
64029;SDS011;50277;52.064;4.492;2022-11-09T14:15:52;14.45;;;2.72;;
64029;SDS011;50277;52.064;4.492;2022-11-09T14:21:14;8.82;;;2.58;;
64029;SDS011;50277;52.064;4.492;2022-11-09T14:23:41;9.32;;;2.13;;
64029;SDS011;50277;52.064;4.492;2022-11-09T14:26:07;10.80;;;2.10;;
64029;SDS011;50277;52.064;4.492;2022-11-09T14:28:34;10.80;;;2.20;;
64029;SDS011;50277;52.064;4.492;2022-11-09T14:31:01;6.60;;;1.48;;
64029;SDS011;50277;52.064;4.492;2022-11-09T14:33:30;9.43;;;2.15;;
64029;SDS011;50277;52.064;4.492;2022-11-09T14:35:58;12.52;;;2.50;;
64029;SDS011;50277;52.064;4.492;2022-11-09T14:38:33;11.60;;;2.35;;
64029;SDS011;50277;52.064;4.492;2022-11-09T14:40:59;6.43;;;2.00;;
64029;SDS011;50277;52.064;4.492;2022-11-09T14:43:30;8.02;;;2.13;;
64029;SDS011;50277;52.064;4.492;2022-11-09T14:45:58;12.50;;;1.77;;
64029;SDS011;50277;52.064;4.492;2022-11-09T14:48:25;8.95;;;2.10;;
64029;SDS011;50277;52.064;4.492;2022-11-09T14:50:51;11.88;;;1.58;;
64029;SDS011;50277;52.064;4.492;2022-11-09T14:53:18;6.32;;;1.38;;
64029;SDS011;50277;52.064;4.492;2022-11-09T14:55:49;13.23;;;3.10;;
64029;SDS011;50277;52.064;4.492;2022-11-09T14:58:15;8.18;;;1.80;;
64029;SDS011;50277;52.064;4.492;2022-11-09T15:00:41;6.18;;;1.58;;
64029;SDS011;50277;52.064;4.492;2022-11-09T15:03:22;7.25;;;1.58;;
64029;SDS011;50277;52.064;4.492;2022-11-09T15:05:48;9.40;;;2.13;;
64029;SDS011;50277;52.064;4.492;2022-11-09T15:08:18;6.43;;;1.50;;
64029;SDS011;50277;52.064;4.492;2022-11-09T15:10:49;13.45;;;2.33;;
64029;SDS011;50277;52.064;4.492;2022-11-09T15:13:15;8.40;;;2.10;;
64029;SDS011;50277;52.064;4.492;2022-11-09T15:15:48;8.65;;;1.45;;
64029;SDS011;50277;52.064;4.492;2022-11-09T15:18:24;7.63;;;1.52;;
64029;SDS011;50277;52.064;4.492;2022-11-09T15:21:15;7.03;;;1.83;;
64029;SDS011;50277;52.064;4.492;2022-11-09T15:32:10;5.50;;;1.48;;
64029;SDS011;50277;52.064;4.492;2022-11-09T15:37:56;5.18;;;1.42;;
64029;SDS011;50277;52.064;4.492;2022-11-09T15:40:07;6.53;;;1.55;;
64029;SDS011;50277;52.064;4.492;2022-11-09T15:42:34;8.90;;;2.15;;
64029;SDS011;50277;52.064;4.492;2022-11-09T15:45:00;7.32;;;1.83;;
64029;SDS011;50277;52.064;4.492;2022-11-09T15:47:26;5.57;;;1.42;;
64029;SDS011;50277;52.064;4.492;2022-11-09T15:50:02;8.38;;;1.70;;
64029;SDS011;50277;52.064;4.492;2022-11-09T15:52:31;9.55;;;1.60;;
64029;SDS011;50277;52.064;4.492;2022-11-09T15:54:56;7.28;;;1.92;;
64029;SDS011;50277;52.064;4.492;2022-11-09T15:57:22;7.15;;;1.38;;
64029;SDS011;50277;52.064;4.492;2022-11-09T15:59:48;6.20;;;1.80;;
64029;SDS011;50277;52.064;4.492;2022-11-09T16:02:14;6.32;;;1.55;;
64029;SDS011;50277;52.064;4.492;2022-11-09T16:04:40;6.95;;;1.98;;
64029;SDS011;50277;52.064;4.492;2022-11-09T16:07:06;9.88;;;1.67;;
64029;SDS011;50277;52.064;4.492;2022-11-09T16:09:31;7.18;;;1.70;;
64029;SDS011;50277;52.064;4.492;2022-11-09T16:11:57;7.50;;;1.90;;
64029;SDS011;50277;52.064;4.492;2022-11-09T16:14:22;3.60;;;1.38;;
64029;SDS011;50277;52.064;4.492;2022-11-09T16:16:48;7.03;;;1.33;;
64029;SDS011;50277;52.064;4.492;2022-11-09T16:19:14;14.57;;;1.65;;
64029;SDS011;50277;52.064;4.492;2022-11-09T16:21:40;6.85;;;1.50;;
64029;SDS011;50277;52.064;4.492;2022-11-09T16:24:06;6.65;;;1.55;;
64029;SDS011;50277;52.064;4.492;2022-11-09T16:26:31;7.60;;;1.95;;
64029;SDS011;50277;52.064;4.492;2022-11-09T16:28:56;10.07;;;1.88;;
64029;SDS011;50277;52.064;4.492;2022-11-09T16:31:22;6.25;;;2.03;;
64029;SDS011;50277;52.064;4.492;2022-11-09T16:33:47;11.00;;;2.25;;
64029;SDS011;50277;52.064;4.492;2022-11-09T16:36:17;3.05;;;1.50;;
64029;SDS011;50277;52.064;4.492;2022-11-09T16:38:45;2.95;;;1.38;;
64029;SDS011;50277;52.064;4.492;2022-11-09T16:41:11;6.13;;;1.83;;
64029;SDS011;50277;52.064;4.492;2022-11-09T16:43:37;5.80;;;1.50;;
64029;SDS011;50277;52.064;4.492;2022-11-09T16:46:03;10.02;;;2.30;;
64029;SDS011;50277;52.064;4.492;2022-11-09T16:48:31;9.77;;;2.67;;
64029;SDS011;50277;52.064;4.492;2022-11-09T16:50:57;7.95;;;1.95;;
64029;SDS011;50277;52.064;4.492;2022-11-09T16:53:22;6.03;;;2.10;;
64029;SDS011;50277;52.064;4.492;2022-11-09T16:55:47;7.60;;;1.60;;
64029;SDS011;50277;52.064;4.492;2022-11-09T16:58:13;7.63;;;1.67;;